sensor_id;sensor_type;location;lat;lon;timestamp;P1;durP1;ratioP1;P2;durP2;ratioP2
16600;SDS011;34891;48.164;11.572;2022-09-17T00:02:06;6.00;;;3.05;;
16600;SDS011;34891;48.164;11.572;2022-09-17T00:07:16;9.95;;;4.60;;
16600;SDS011;34891;48.164;11.572;2022-09-17T00:12:23;9.75;;;5.07;;
16600;SDS011;34891;48.164;11.572;2022-09-17T00:17:29;8.57;;;3.50;;
16600;SDS011;34891;48.164;11.572;2022-09-17T00:22:37;10.40;;;4.47;;
16600;SDS011;34891;48.164;11.572;2022-09-17T00:28:07;6.33;;;3.33;;
16600;SDS011;34891;48.164;11.572;2022-09-17T00:33:17;9.27;;;4.00;;
16600;SDS011;34891;48.164;11.572;2022-09-17T00:38:28;5.80;;;2.70;;
16600;SDS011;34891;48.164;11.572;2022-09-17T00:43:39;3.67;;;1.80;;
16600;SDS011;34891;48.164;11.572;2022-09-17T00:48:46;5.03;;;2.35;;
16600;SDS011;34891;48.164;11.572;2022-09-17T00:54:02;3.83;;;2.00;;
16600;SDS011;34891;48.164;11.572;2022-09-17T00:59:09;5.55;;;2.55;;
16600;SDS011;34891;48.164;11.572;2022-09-17T01:04:16;6.82;;;2.47;;
16600;SDS011;34891;48.164;11.572;2022-09-17T01:09:31;3.28;;;1.77;;
16600;SDS011;34891;48.164;11.572;2022-09-17T01:14:46;4.07;;;2.15;;
16600;SDS011;34891;48.164;11.572;2022-09-17T01:20:03;5.20;;;1.80;;
16600;SDS011;34891;48.164;11.572;2022-09-17T01:25:37;3.13;;;1.95;;
16600;SDS011;34891;48.164;11.572;2022-09-17T01:36:35;4.65;;;1.90;;
16600;SDS011;34891;48.164;11.572;2022-09-17T01:41:47;4.22;;;1.88;;
16600;SDS011;34891;48.164;11.572;2022-09-17T01:47:12;4.00;;;1.95;;
16600;SDS011;34891;48.164;11.572;2022-09-17T01:52:37;3.75;;;1.85;;
16600;SDS011;34891;48.164;11.572;2022-09-17T01:57:47;4.85;;;1.70;;
16600;SDS011;34891;48.164;11.572;2022-09-17T02:02:59;3.90;;;2.08;;
16600;SDS011;34891;48.164;11.572;2022-09-17T02:08:09;1.52;;;1.30;;
16600;SDS011;34891;48.164;11.572;2022-09-17T02:13:27;3.47;;;1.70;;
16600;SDS011;34891;48.164;11.572;2022-09-17T02:18:44;2.38;;;1.38;;
16600;SDS011;34891;48.164;11.572;2022-09-17T02:24:03;2.20;;;1.20;;
16600;SDS011;34891;48.164;11.572;2022-09-17T02:29:21;3.85;;;1.73;;
16600;SDS011;34891;48.164;11.572;2022-09-17T02:34:30;2.17;;;1.40;;
16600;SDS011;34891;48.164;11.572;2022-09-17T02:39:52;3.40;;;1.20;;
16600;SDS011;34891;48.164;11.572;2022-09-17T02:45:01;8.23;;;2.70;;
16600;SDS011;34891;48.164;11.572;2022-09-17T02:50:23;2.53;;;1.20;;
16600;SDS011;34891;48.164;11.572;2022-09-17T02:55:35;2.72;;;1.42;;
16600;SDS011;34891;48.164;11.572;2022-09-17T03:00:51;1.83;;;1.48;;
16600;SDS011;34891;48.164;11.572;2022-09-17T03:05:59;1.20;;;1.00;;
16600;SDS011;34891;48.164;11.572;2022-09-17T03:16:45;5.07;;;1.33;;
16600;SDS011;34891;48.164;11.572;2022-09-17T03:22:01;1.90;;;1.08;;
16600;SDS011;34891;48.164;11.572;2022-09-17T03:27:17;1.67;;;1.10;;
16600;SDS011;34891;48.164;11.572;2022-09-17T03:32:29;2.80;;;1.15;;
16600;SDS011;34891;48.164;11.572;2022-09-17T03:37:41;1.83;;;1.23;;
16600;SDS011;34891;48.164;11.572;2022-09-17T03:42:58;4.13;;;1.35;;
16600;SDS011;34891;48.164;11.572;2022-09-17T03:48:16;2.85;;;1.20;;
16600;SDS011;34891;48.164;11.572;2022-09-17T03:53:37;2.30;;;1.58;;
16600;SDS011;34891;48.164;11.572;2022-09-17T03:58:55;2.83;;;1.35;;
16600;SDS011;34891;48.164;11.572;2022-09-17T04:04:08;1.95;;;1.42;;
16600;SDS011;34891;48.164;11.572;2022-09-17T04:09:18;1.83;;;1.30;;
16600;SDS011;34891;48.164;11.572;2022-09-17T04:14:32;4.22;;;1.63;;
16600;SDS011;34891;48.164;11.572;2022-09-17T04:19:48;3.38;;;1.80;;
16600;SDS011;34891;48.164;11.572;2022-09-17T04:25:03;4.32;;;1.85;;
16600;SDS011;34891;48.164;11.572;2022-09-17T04:30:13;2.42;;;1.33;;
16600;SDS011;34891;48.164;11.572;2022-09-17T04:35:29;3.17;;;1.70;;
16600;SDS011;34891;48.164;11.572;2022-09-17T04:40:37;3.40;;;1.90;;
16600;SDS011;34891;48.164;11.572;2022-09-17T04:46:02;1.90;;;1.40;;
16600;SDS011;34891;48.164;11.572;2022-09-17T04:51:30;2.47;;;1.58;;
16600;SDS011;34891;48.164;11.572;2022-09-17T04:56:46;4.28;;;1.52;;
16600;SDS011;34891;48.164;11.572;2022-09-17T05:01:54;2.28;;;1.50;;
16600;SDS011;34891;48.164;11.572;2022-09-17T05:07:13;1.65;;;0.95;;
16600;SDS011;34891;48.164;11.572;2022-09-17T05:12:28;4.18;;;1.70;;
16600;SDS011;34891;48.164;11.572;2022-09-17T05:17:41;4.60;;;1.70;;
16600;SDS011;34891;48.164;11.572;2022-09-17T05:22:51;3.65;;;1.85;;
16600;SDS011;34891;48.164;11.572;2022-09-17T05:27:59;4.57;;;2.05;;
16600;SDS011;34891;48.164;11.572;2022-09-17T05:33:06;1.65;;;1.40;;
16600;SDS011;34891;48.164;11.572;2022-09-17T05:38:18;5.00;;;1.70;;
16600;SDS011;34891;48.164;11.572;2022-09-17T05:43:23;5.15;;;1.63;;
16600;SDS011;34891;48.164;11.572;2022-09-17T05:48:29;4.50;;;1.90;;
16600;SDS011;34891;48.164;11.572;2022-09-17T05:53:48;2.33;;;1.40;;
16600;SDS011;34891;48.164;11.572;2022-09-17T05:59:00;5.80;;;1.30;;
16600;SDS011;34891;48.164;11.572;2022-09-17T06:04:12;4.93;;;1.25;;
16600;SDS011;34891;48.164;11.572;2022-09-17T06:09:21;1.58;;;1.40;;
16600;SDS011;34891;48.164;11.572;2022-09-17T06:14:28;2.83;;;1.50;;
16600;SDS011;34891;48.164;11.572;2022-09-17T06:19:36;3.75;;;1.55;;
16600;SDS011;34891;48.164;11.572;2022-09-17T06:24:45;2.65;;;1.42;;
16600;SDS011;34891;48.164;11.572;2022-09-17T06:29:55;4.32;;;1.27;;
16600;SDS011;34891;48.164;11.572;2022-09-17T06:35:00;6.25;;;1.92;;
16600;SDS011;34891;48.164;11.572;2022-09-17T06:40:14;3.15;;;1.75;;
16600;SDS011;34891;48.164;11.572;2022-09-17T06:45:24;4.53;;;1.63;;
16600;SDS011;34891;48.164;11.572;2022-09-17T06:50:29;3.75;;;0.85;;
16600;SDS011;34891;48.164;11.572;2022-09-17T06:55:44;4.20;;;1.30;;
16600;SDS011;34891;48.164;11.572;2022-09-17T07:00:50;3.75;;;1.17;;
16600;SDS011;34891;48.164;11.572;2022-09-17T07:05:57;2.78;;;1.40;;
16600;SDS011;34891;48.164;11.572;2022-09-17T07:11:09;3.60;;;1.35;;
16600;SDS011;34891;48.164;11.572;2022-09-17T07:16:14;7.82;;;3.85;;
16600;SDS011;34891;48.164;11.572;2022-09-17T07:21:19;7.32;;;1.40;;
16600;SDS011;34891;48.164;11.572;2022-09-17T07:26:37;3.38;;;1.10;;
16600;SDS011;34891;48.164;11.572;2022-09-17T07:31:44;5.25;;;1.38;;
16600;SDS011;34891;48.164;11.572;2022-09-17T07:37:04;2.53;;;1.30;;
16600;SDS011;34891;48.164;11.572;2022-09-17T07:42:12;3.97;;;1.10;;
16600;SDS011;34891;48.164;11.572;2022-09-17T07:47:22;4.07;;;1.40;;
16600;SDS011;34891;48.164;11.572;2022-09-17T07:52:37;3.97;;;1.40;;
16600;SDS011;34891;48.164;11.572;2022-09-17T07:58:01;3.28;;;1.73;;
16600;SDS011;34891;48.164;11.572;2022-09-17T08:03:06;3.43;;;1.30;;
16600;SDS011;34891;48.164;11.572;2022-09-17T08:08:21;2.00;;;0.90;;
16600;SDS011;34891;48.164;11.572;2022-09-17T08:13:35;5.53;;;1.52;;
16600;SDS011;34891;48.164;11.572;2022-09-17T08:18:42;3.50;;;1.10;;
16600;SDS011;34891;48.164;11.572;2022-09-17T08:24:02;4.68;;;1.30;;
16600;SDS011;34891;48.164;11.572;2022-09-17T08:29:09;5.88;;;1.27;;
16600;SDS011;34891;48.164;11.572;2022-09-17T08:34:35;3.97;;;0.90;;
16600;SDS011;34891;48.164;11.572;2022-09-17T08:39:41;1.40;;;0.82;;
16600;SDS011;34891;48.164;11.572;2022-09-17T08:50:15;4.28;;;1.52;;
16600;SDS011;34891;48.164;11.572;2022-09-17T08:55:25;1.25;;;0.70;;
16600;SDS011;34891;48.164;11.572;2022-09-17T09:00:37;6.95;;;1.30;;
16600;SDS011;34891;48.164;11.572;2022-09-17T09:05:54;2.35;;;0.85;;
16600;SDS011;34891;48.164;11.572;2022-09-17T09:11:12;4.88;;;1.38;;
16600;SDS011;34891;48.164;11.572;2022-09-17T09:16:30;9.13;;;1.27;;
16600;SDS011;34891;48.164;11.572;2022-09-17T09:27:21;5.85;;;1.60;;
16600;SDS011;34891;48.164;11.572;2022-09-17T09:32:37;2.90;;;1.35;;
16600;SDS011;34891;48.164;11.572;2022-09-17T09:37:56;6.95;;;1.20;;
16600;SDS011;34891;48.164;11.572;2022-09-17T09:43:20;7.03;;;1.63;;
16600;SDS011;34891;48.164;11.572;2022-09-17T09:48:43;5.68;;;1.30;;
16600;SDS011;34891;48.164;11.572;2022-09-17T09:53:58;3.03;;;1.23;;
16600;SDS011;34891;48.164;11.572;2022-09-17T09:59:08;4.85;;;1.40;;
16600;SDS011;34891;48.164;11.572;2022-09-17T10:04:18;4.68;;;1.77;;
16600;SDS011;34891;48.164;11.572;2022-09-17T10:09:23;3.78;;;2.00;;
16600;SDS011;34891;48.164;11.572;2022-09-17T10:14:44;7.35;;;2.10;;
16600;SDS011;34891;48.164;11.572;2022-09-17T10:20:14;5.85;;;1.85;;
16600;SDS011;34891;48.164;11.572;2022-09-17T10:25:26;7.18;;;2.05;;
16600;SDS011;34891;48.164;11.572;2022-09-17T10:30:38;8.23;;;2.33;;
16600;SDS011;34891;48.164;11.572;2022-09-17T10:36:01;5.07;;;2.30;;
16600;SDS011;34891;48.164;11.572;2022-09-17T10:41:16;3.25;;;1.60;;
16600;SDS011;34891;48.164;11.572;2022-09-17T10:51:42;2.72;;;1.00;;
16600;SDS011;34891;48.164;11.572;2022-09-17T10:56:50;3.57;;;1.20;;
16600;SDS011;34891;48.164;11.572;2022-09-17T11:02:01;1.05;;;0.80;;
16600;SDS011;34891;48.164;11.572;2022-09-17T11:07:13;4.85;;;1.17;;
16600;SDS011;34891;48.164;11.572;2022-09-17T11:17:34;5.72;;;1.40;;
16600;SDS011;34891;48.164;11.572;2022-09-17T11:22:49;3.30;;;1.20;;
16600;SDS011;34891;48.164;11.572;2022-09-17T11:28:25;1.75;;;1.00;;
16600;SDS011;34891;48.164;11.572;2022-09-17T11:39:14;1.55;;;0.90;;
16600;SDS011;34891;48.164;11.572;2022-09-17T11:44:23;5.13;;;2.03;;
16600;SDS011;34891;48.164;11.572;2022-09-17T11:49:32;5.78;;;1.50;;
16600;SDS011;34891;48.164;11.572;2022-09-17T11:54:41;4.28;;;1.20;;
16600;SDS011;34891;48.164;11.572;2022-09-17T11:59:57;4.38;;;1.17;;
16600;SDS011;34891;48.164;11.572;2022-09-17T12:05:03;3.15;;;1.48;;
16600;SDS011;34891;48.164;11.572;2022-09-17T12:15:50;7.10;;;1.33;;
16600;SDS011;34891;48.164;11.572;2022-09-17T12:21:04;3.05;;;1.40;;
16600;SDS011;34891;48.164;11.572;2022-09-17T12:26:19;3.67;;;2.60;;
16600;SDS011;34891;48.164;11.572;2022-09-17T12:31:51;2.15;;;0.88;;
16600;SDS011;34891;48.164;11.572;2022-09-17T12:37:04;1.90;;;0.88;;
16600;SDS011;34891;48.164;11.572;2022-09-17T12:53:25;4.75;;;1.10;;
16600;SDS011;34891;48.164;11.572;2022-09-17T12:58:51;4.25;;;1.20;;
16600;SDS011;34891;48.164;11.572;2022-09-17T13:04:13;3.58;;;1.40;;
16600;SDS011;34891;48.164;11.572;2022-09-17T13:09:40;2.38;;;1.15;;
16600;SDS011;34891;48.164;11.572;2022-09-17T13:20:23;2.78;;;1.60;;
16600;SDS011;34891;48.164;11.572;2022-09-17T13:25:58;5.25;;;1.80;;
16600;SDS011;34891;48.164;11.572;2022-09-17T13:31:06;3.47;;;1.27;;
16600;SDS011;34891;48.164;11.572;2022-09-17T13:36:43;2.05;;;1.30;;
16600;SDS011;34891;48.164;11.572;2022-09-17T13:42:07;1.33;;;0.88;;
16600;SDS011;34891;48.164;11.572;2022-09-17T13:47:25;1.73;;;1.08;;
16600;SDS011;34891;48.164;11.572;2022-09-17T13:52:41;2.20;;;1.15;;
16600;SDS011;34891;48.164;11.572;2022-09-17T13:57:56;4.20;;;1.20;;
16600;SDS011;34891;48.164;11.572;2022-09-17T14:08:28;3.72;;;1.60;;
16600;SDS011;34891;48.164;11.572;2022-09-17T14:19:17;4.32;;;1.13;;
16600;SDS011;34891;48.164;11.572;2022-09-17T14:24:23;2.85;;;0.98;;
16600;SDS011;34891;48.164;11.572;2022-09-17T14:29:49;1.02;;;0.70;;
16600;SDS011;34891;48.164;11.572;2022-09-17T14:35:11;2.03;;;0.68;;
16600;SDS011;34891;48.164;11.572;2022-09-17T14:40:32;0.70;;;0.60;;
16600;SDS011;34891;48.164;11.572;2022-09-17T14:45:44;3.63;;;1.10;;
16600;SDS011;34891;48.164;11.572;2022-09-17T14:51:00;4.68;;;1.10;;
16600;SDS011;34891;48.164;11.572;2022-09-17T14:56:21;2.15;;;1.35;;
16600;SDS011;34891;48.164;11.572;2022-09-17T15:01:31;0.98;;;0.70;;
16600;SDS011;34891;48.164;11.572;2022-09-17T15:06:48;2.88;;;1.05;;
16600;SDS011;34891;48.164;11.572;2022-09-17T15:12:00;1.92;;;0.80;;
16600;SDS011;34891;48.164;11.572;2022-09-17T15:17:12;1.58;;;0.80;;
16600;SDS011;34891;48.164;11.572;2022-09-17T15:22:25;1.50;;;0.90;;
16600;SDS011;34891;48.164;11.572;2022-09-17T15:27:43;0.75;;;0.50;;
16600;SDS011;34891;48.164;11.572;2022-09-17T15:33:01;1.05;;;0.70;;
16600;SDS011;34891;48.164;11.572;2022-09-17T15:38:20;1.15;;;0.35;;
16600;SDS011;34891;48.164;11.572;2022-09-17T15:43:27;0.85;;;0.65;;
16600;SDS011;34891;48.164;11.572;2022-09-17T15:48:36;1.92;;;0.63;;
16600;SDS011;34891;48.164;11.572;2022-09-17T15:53:51;3.80;;;0.70;;
16600;SDS011;34891;48.164;11.572;2022-09-17T15:59:04;2.33;;;0.60;;
16600;SDS011;34891;48.164;11.572;2022-09-17T16:04:26;1.20;;;0.68;;
16600;SDS011;34891;48.164;11.572;2022-09-17T16:09:45;1.50;;;0.47;;
16600;SDS011;34891;48.164;11.572;2022-09-17T16:14:53;3.53;;;1.02;;
16600;SDS011;34891;48.164;11.572;2022-09-17T16:19:58;1.88;;;0.68;;
16600;SDS011;34891;48.164;11.572;2022-09-17T16:25:16;0.90;;;0.40;;
16600;SDS011;34891;48.164;11.572;2022-09-17T16:30:24;2.28;;;0.70;;
16600;SDS011;34891;48.164;11.572;2022-09-17T16:35:39;1.27;;;0.55;;
16600;SDS011;34891;48.164;11.572;2022-09-17T16:40:52;1.02;;;0.40;;
16600;SDS011;34891;48.164;11.572;2022-09-17T16:45:58;1.05;;;0.40;;
16600;SDS011;34891;48.164;11.572;2022-09-17T16:51:08;0.73;;;0.47;;
16600;SDS011;34891;48.164;11.572;2022-09-17T16:56:26;0.65;;;0.30;;
16600;SDS011;34891;48.164;11.572;2022-09-17T17:01:48;2.93;;;0.50;;
16600;SDS011;34891;48.164;11.572;2022-09-17T17:06:57;1.83;;;0.80;;
16600;SDS011;34891;48.164;11.572;2022-09-17T17:12:09;1.02;;;0.75;;
16600;SDS011;34891;48.164;11.572;2022-09-17T17:17:16;1.10;;;0.70;;
16600;SDS011;34891;48.164;11.572;2022-09-17T17:22:25;2.70;;;1.10;;
16600;SDS011;34891;48.164;11.572;2022-09-17T17:27:41;1.57;;;0.80;;
16600;SDS011;34891;48.164;11.572;2022-09-17T17:32:49;3.75;;;1.20;;
16600;SDS011;34891;48.164;11.572;2022-09-17T17:38:07;0.52;;;0.40;;
16600;SDS011;34891;48.164;11.572;2022-09-17T17:43:17;1.30;;;0.70;;
16600;SDS011;34891;48.164;11.572;2022-09-17T17:48:30;2.92;;;0.80;;
16600;SDS011;34891;48.164;11.572;2022-09-17T17:53:40;2.85;;;0.80;;
16600;SDS011;34891;48.164;11.572;2022-09-17T18:04:29;0.45;;;0.45;;
16600;SDS011;34891;48.164;11.572;2022-09-17T18:09:34;1.63;;;1.02;;
16600;SDS011;34891;48.164;11.572;2022-09-17T18:14:39;2.63;;;0.70;;
16600;SDS011;34891;48.164;11.572;2022-09-17T18:20:05;3.22;;;1.00;;
16600;SDS011;34891;48.164;11.572;2022-09-17T18:25:14;1.65;;;0.98;;
16600;SDS011;34891;48.164;11.572;2022-09-17T18:30:30;1.85;;;1.27;;
16600;SDS011;34891;48.164;11.572;2022-09-17T18:35:45;2.72;;;0.98;;
16600;SDS011;34891;48.164;11.572;2022-09-17T18:40:51;3.90;;;0.77;;
16600;SDS011;34891;48.164;11.572;2022-09-17T18:46:00;0.77;;;0.65;;
16600;SDS011;34891;48.164;11.572;2022-09-17T18:51:12;0.82;;;0.63;;
16600;SDS011;34891;48.164;11.572;2022-09-17T18:56:28;5.72;;;1.88;;
16600;SDS011;34891;48.164;11.572;2022-09-17T19:01:37;2.72;;;1.13;;
16600;SDS011;34891;48.164;11.572;2022-09-17T19:06:52;1.35;;;0.93;;
16600;SDS011;34891;48.164;11.572;2022-09-17T19:11:57;1.15;;;0.82;;
16600;SDS011;34891;48.164;11.572;2022-09-17T19:17:16;1.90;;;1.05;;
16600;SDS011;34891;48.164;11.572;2022-09-17T19:22:25;2.25;;;1.23;;
16600;SDS011;34891;48.164;11.572;2022-09-17T19:27:36;2.55;;;1.25;;
16600;SDS011;34891;48.164;11.572;2022-09-17T19:32:49;0.95;;;0.57;;
16600;SDS011;34891;48.164;11.572;2022-09-17T19:38:07;2.83;;;1.27;;
16600;SDS011;34891;48.164;11.572;2022-09-17T19:43:24;5.70;;;1.20;;
16600;SDS011;34891;48.164;11.572;2022-09-17T19:48:35;1.88;;;1.15;;
16600;SDS011;34891;48.164;11.572;2022-09-17T19:53:52;2.05;;;1.05;;
16600;SDS011;34891;48.164;11.572;2022-09-17T19:59:22;1.90;;;1.20;;
16600;SDS011;34891;48.164;11.572;2022-09-17T20:04:30;2.72;;;1.08;;
16600;SDS011;34891;48.164;11.572;2022-09-17T20:09:52;7.25;;;1.13;;
16600;SDS011;34891;48.164;11.572;2022-09-17T20:15:06;0.93;;;0.90;;
16600;SDS011;34891;48.164;11.572;2022-09-17T20:20:11;3.13;;;0.90;;
16600;SDS011;34891;48.164;11.572;2022-09-17T20:25:23;1.23;;;1.02;;
16600;SDS011;34891;48.164;11.572;2022-09-17T20:30:28;2.30;;;1.20;;
16600;SDS011;34891;48.164;11.572;2022-09-17T20:35:34;2.72;;;0.98;;
16600;SDS011;34891;48.164;11.572;2022-09-17T20:40:45;2.30;;;1.15;;
16600;SDS011;34891;48.164;11.572;2022-09-17T20:45:52;1.48;;;0.88;;
16600;SDS011;34891;48.164;11.572;2022-09-17T20:50:58;2.47;;;1.30;;
16600;SDS011;34891;48.164;11.572;2022-09-17T21:07:15;5.10;;;1.13;;
16600;SDS011;34891;48.164;11.572;2022-09-17T21:12:24;2.20;;;1.08;;
16600;SDS011;34891;48.164;11.572;2022-09-17T21:17:30;1.00;;;0.88;;
16600;SDS011;34891;48.164;11.572;2022-09-17T21:22:46;2.53;;;0.80;;
16600;SDS011;34891;48.164;11.572;2022-09-17T21:27:49;2.83;;;0.80;;
16600;SDS011;34891;48.164;11.572;2022-09-17T21:32:59;4.30;;;0.80;;
16600;SDS011;34891;48.164;11.572;2022-09-17T21:38:05;1.38;;;0.73;;
16600;SDS011;34891;48.164;11.572;2022-09-17T21:43:13;1.35;;;0.43;;
16600;SDS011;34891;48.164;11.572;2022-09-17T21:48:21;0.90;;;0.52;;
16600;SDS011;34891;48.164;11.572;2022-09-17T21:53:37;0.32;;;0.30;;
16600;SDS011;34891;48.164;11.572;2022-09-17T21:58:58;0.30;;;0.30;;
16600;SDS011;34891;48.164;11.572;2022-09-17T22:04:18;0.75;;;0.40;;
16600;SDS011;34891;48.164;11.572;2022-09-17T22:09:35;0.40;;;0.40;;
16600;SDS011;34891;48.164;11.572;2022-09-17T22:14:51;0.50;;;0.25;;
16600;SDS011;34891;48.164;11.572;2022-09-17T22:19:57;2.17;;;0.50;;
16600;SDS011;34891;48.164;11.572;2022-09-17T22:25:10;0.63;;;0.30;;
16600;SDS011;34891;48.164;11.572;2022-09-17T22:30:20;0.32;;;0.25;;
16600;SDS011;34891;48.164;11.572;2022-09-17T22:35:26;1.15;;;0.50;;
16600;SDS011;34891;48.164;11.572;2022-09-17T22:40:37;1.40;;;0.63;;
16600;SDS011;34891;48.164;11.572;2022-09-17T22:45:52;0.77;;;0.50;;
16600;SDS011;34891;48.164;11.572;2022-09-17T22:51:01;0.95;;;0.43;;
16600;SDS011;34891;48.164;11.572;2022-09-17T22:56:25;0.35;;;0.20;;
16600;SDS011;34891;48.164;11.572;2022-09-17T23:01:34;1.88;;;0.75;;
16600;SDS011;34891;48.164;11.572;2022-09-17T23:06:47;1.80;;;0.57;;
16600;SDS011;34891;48.164;11.572;2022-09-17T23:12:06;1.63;;;0.77;;
16600;SDS011;34891;48.164;11.572;2022-09-17T23:17:15;1.52;;;0.77;;
16600;SDS011;34891;48.164;11.572;2022-09-17T23:22:19;1.60;;;0.82;;
16600;SDS011;34891;48.164;11.572;2022-09-17T23:27:28;1.65;;;0.43;;
16600;SDS011;34891;48.164;11.572;2022-09-17T23:32:32;1.77;;;0.60;;
16600;SDS011;34891;48.164;11.572;2022-09-17T23:38:03;1.70;;;0.52;;
16600;SDS011;34891;48.164;11.572;2022-09-17T23:43:25;2.35;;;0.90;;
16600;SDS011;34891;48.164;11.572;2022-09-17T23:48:29;0.32;;;0.32;;
16600;SDS011;34891;48.164;11.572;2022-09-17T23:53:42;4.32;;;0.70;;
16600;SDS011;34891;48.164;11.572;2022-09-17T23:58:57;1.52;;;0.77;;
